createdAt,value
2023-02-02T00:02:16.819Z,71.93
2023-02-02T00:05:14.801Z,71.95
2023-02-02T00:08:37.386Z,71.93
2023-02-02T00:11:15.852Z,71.92
2023-02-02T00:14:04.364Z,71.89
2023-02-02T00:16:52.568Z,71.84
2023-02-02T00:19:34.850Z,71.95
2023-02-02T00:22:39.780Z,71.93
2023-02-02T00:25:42.439Z,71.82
2023-02-02T00:28:44.573Z,71.91
2023-02-02T00:32:09.648Z,72.03
2023-02-02T00:35:52.763Z,71.99
2023-02-02T00:38:54.306Z,72.04
2023-02-02T00:42:57.308Z,72.07
2023-02-02T00:46:47.433Z,72.22
2023-02-02T00:50:12.090Z,72.13
2023-02-02T00:53:25.566Z,72.08
2023-02-02T00:57:45.478Z,72.12
2023-02-02T01:01:57.974Z,72.06
2023-02-02T01:04:01.091Z,72.10
2023-02-02T01:14:29.971Z,72.10
2023-02-02T01:17:27.747Z,72.10
2023-02-02T01:21:13.744Z,71.99
2023-02-02T01:23:54.417Z,72.10
2023-02-02T01:29:23.072Z,72.09
2023-02-02T01:30:41.621Z,72.21
2023-02-02T01:33:47.507Z,72.17
2023-02-02T01:38:05.674Z,72.04
2023-02-02T01:40:13.815Z,72.37
2023-02-02T01:44:48.925Z,72.27
2023-02-02T01:48:16.322Z,72.32
2023-02-02T01:51:43.410Z,72.51
2023-02-02T01:55:13.767Z,72.27
2023-02-02T01:59:00.229Z,72.33
2023-02-02T02:03:06.172Z,72.17
2023-02-02T02:06:25.543Z,72.18
2023-02-02T02:10:38.335Z,72.14
2023-02-02T02:24:57.472Z,71.95
2023-02-02T02:28:09.833Z,71.99
2023-02-02T02:31:25.643Z,72.15
2023-02-02T02:35:06.395Z,72.02
2023-02-02T02:39:12.642Z,72.31
2023-02-02T02:42:46.519Z,72.24
2023-02-02T02:46:08.018Z,72.02
2023-02-02T02:52:18.019Z,72.08
2023-02-02T02:56:24.958Z,72.06
2023-02-02T02:59:42.022Z,71.89
2023-02-02T03:02:41.087Z,72.15
2023-02-02T03:06:13.286Z,72.06
2023-02-02T03:09:47.829Z,72.08
2023-02-02T03:13:09.413Z,72.28
2023-02-02T03:16:08.468Z,72.39
2023-02-02T03:19:30.474Z,72.21
2023-02-02T03:25:41.778Z,72.25
2023-02-02T03:29:18.469Z,72.31
2023-02-02T03:33:04.912Z,72.35
2023-02-02T03:37:00.582Z,72.11
2023-02-02T03:40:14.482Z,72.25
2023-02-02T03:47:23.968Z,71.92
2023-02-02T03:50:42.733Z,71.78
2023-02-02T03:53:52.922Z,71.88
2023-02-02T03:57:16.823Z,71.79
2023-02-02T04:00:19.293Z,71.61
2023-02-02T04:03:18.627Z,71.41
2023-02-02T04:06:32.806Z,71.38
2023-02-02T04:10:06.690Z,71.30
2023-02-02T04:13:18.378Z,71.15
2023-02-02T04:16:47.696Z,71.02
2023-02-02T04:19:53.848Z,70.92
2023-02-02T04:23:35.431Z,70.74
2023-02-02T04:30:25.568Z,70.72
2023-02-02T04:33:11.493Z,70.78
2023-02-02T04:39:51.785Z,70.78
2023-02-02T04:42:59.145Z,70.76
2023-02-02T04:45:57.794Z,70.88
2023-02-02T04:49:01.525Z,70.99
2023-02-02T04:51:55.549Z,71.13
2023-02-02T04:54:50.131Z,71.19
2023-02-02T04:57:54.169Z,71.19
2023-02-02T05:02:00.215Z,71.37
2023-02-02T05:05:33.122Z,71.53
2023-02-02T05:08:34.902Z,71.61
2023-02-02T05:12:00.564Z,71.74
2023-02-02T05:15:21.470Z,71.89
2023-02-02T05:18:30.037Z,71.83
2023-02-02T05:22:57.895Z,72.04
2023-02-02T05:24:40.732Z,72.40
2023-02-02T05:33:29.392Z,72.81
2023-02-02T05:44:17.592Z,73.28
2023-02-02T05:53:06.112Z,73.73
2023-02-02T05:57:16.905Z,73.97
2023-02-02T06:01:01.672Z,74.19
2023-02-02T06:04:33.383Z,74.57
2023-02-02T06:36:07.212Z,74.77
2023-02-02T06:58:47.923Z,70.36
2023-02-02T07:02:43.493Z,69.22
2023-02-02T07:05:31.708Z,70.43
2023-02-02T07:13:04.348Z,71.97
2023-02-02T07:16:52.933Z,72.57
2023-02-02T07:19:59.528Z,72.59
2023-02-02T07:34:17.100Z,73.35
2023-02-02T07:40:25.993Z,73.50
2023-02-02T07:46:48.369Z,73.66
2023-02-02T07:49:48.675Z,73.73
2023-02-02T07:53:05.764Z,73.92
2023-02-02T07:56:43.466Z,74.35
2023-02-02T07:59:57.200Z,74.20
2023-02-02T08:02:44.609Z,73.65
2023-02-02T08:05:24.471Z,73.50
2023-02-02T08:08:05.938Z,73.46
2023-02-02T08:10:42.642Z,73.55
2023-02-02T08:13:54.343Z,73.36
2023-02-02T08:17:47.022Z,73.50
2023-02-02T08:21:27.382Z,73.67
2023-02-02T08:24:29.573Z,73.55
2023-02-02T08:27:11.077Z,73.32
2023-02-02T08:29:45.556Z,73.27
2023-02-02T08:32:26.379Z,73.14
2023-02-02T08:35:45.541Z,72.98
2023-02-02T08:38:52.251Z,72.74
2023-02-02T08:41:58.919Z,72.79
2023-02-02T08:46:12.725Z,72.25
2023-02-02T08:48:45.033Z,72.16
2023-02-02T08:51:49.139Z,72.28
2023-02-02T08:55:36.983Z,72.15
2023-02-02T09:01:42.977Z,71.93
2023-02-02T09:04:41.556Z,71.73
2023-02-02T09:07:26.257Z,71.63
2023-02-02T09:10:46.553Z,71.51
2023-02-02T09:13:52.303Z,71.20
2023-02-02T09:17:06.292Z,70.96
2023-02-02T09:19:58.291Z,70.62
2023-02-02T09:22:46.477Z,70.57
2023-02-02T09:25:37.476Z,70.58
2023-02-02T09:28:20.113Z,70.55
2023-02-02T09:31:24.632Z,70.40
2023-02-02T09:34:11.319Z,70.29
2023-02-02T09:36:55.250Z,70.40
2023-02-02T09:39:36.429Z,70.22
2023-02-02T09:42:57.592Z,70.13
2023-02-02T09:46:03.837Z,70.18
2023-02-02T09:49:00.109Z,70.24
2023-02-02T09:51:48.969Z,70.25
2023-02-02T09:54:41.690Z,70.22
2023-02-02T09:57:39.392Z,70.35
2023-02-02T10:00:46.432Z,70.45
2023-02-02T10:03:41.407Z,70.40
2023-02-02T10:06:28.547Z,70.14
2023-02-02T10:09:13.631Z,69.98
2023-02-02T10:12:05.231Z,69.97
2023-02-02T10:14:56.560Z,70.01
2023-02-02T10:18:50.085Z,70.03
2023-02-02T10:22:23.439Z,70.23
2023-02-02T10:24:58.165Z,70.29
2023-02-02T10:28:18.949Z,70.23
2023-02-02T10:32:07.692Z,70.18
2023-02-02T10:40:15.889Z,70.46
2023-02-02T10:43:44.512Z,70.48
2023-02-02T10:46:55.670Z,70.42
2023-02-02T10:49:42.573Z,70.11
2023-02-02T10:53:02.749Z,70.11
2023-02-02T10:56:32.457Z,70.03
2023-02-02T10:59:31.337Z,69.94
2023-02-02T11:02:20.983Z,69.96
2023-02-02T11:05:09.927Z,69.54
2023-02-02T11:07:48.222Z,69.47
2023-02-02T11:10:28.053Z,69.26
2023-02-02T11:13:02.352Z,68.98
2023-02-02T11:15:48.945Z,68.55
2023-02-02T11:18:56.150Z,68.44
2023-02-02T11:21:40.126Z,68.39
2023-02-02T11:25:14.669Z,68.26
2023-02-02T11:31:40.312Z,67.81
2023-02-02T11:35:51.720Z,67.73
2023-02-02T12:09:32.427Z,65.72
2023-02-02T12:13:19.850Z,65.66
2023-02-02T12:17:01.302Z,65.72
2023-02-02T13:09:45.800Z,59.08
2023-02-02T13:37:09.992Z,59.45
2023-02-02T14:23:46.897Z,60.52
2023-02-02T14:35:49.578Z,60.77
2023-02-02T14:42:46.848Z,61.08
2023-02-02T14:45:28.297Z,61.30
2023-02-02T14:48:11.066Z,61.36
2023-02-02T14:50:59.836Z,61.53
2023-02-02T14:53:56.135Z,61.60
2023-02-02T14:56:57.880Z,61.61
2023-02-02T14:59:48.437Z,61.76
2023-02-02T15:02:39.333Z,62.09
2023-02-02T15:06:13.975Z,62.09
2023-02-02T15:09:43.230Z,62.49
2023-02-02T15:12:46.720Z,62.91
2023-02-02T15:15:34.845Z,63.01
2023-02-02T15:18:40.865Z,63.11
2023-02-02T15:21:23.025Z,63.23
2023-02-02T15:24:11.985Z,63.35
2023-02-02T15:27:08.834Z,63.46
2023-02-02T15:29:45.535Z,63.59
2023-02-02T15:32:25.823Z,63.66
2023-02-02T15:35:23.780Z,63.74
2023-02-02T15:38:06.790Z,63.92
2023-02-02T15:40:40.986Z,63.98
2023-02-02T15:43:13.743Z,63.94
2023-02-02T15:46:32.912Z,64.03
2023-02-02T15:49:34.737Z,64.09
2023-02-02T15:52:35.340Z,64.16
2023-02-02T15:55:38.515Z,64.44
2023-02-02T15:58:55.657Z,64.46
2023-02-02T16:01:56.760Z,64.44
2023-02-02T16:04:49.580Z,64.46
2023-02-02T16:08:05.060Z,64.35
2023-02-02T16:10:53.422Z,64.26
2023-02-02T16:13:32.718Z,64.24
2023-02-02T16:16:24.127Z,64.22
2023-02-02T16:19:32.179Z,64.34
2023-02-02T16:22:15.177Z,64.48
2023-02-02T16:25:02.239Z,64.73
2023-02-02T16:27:39.624Z,65.07
2023-02-02T16:30:53.966Z,65.26
2023-02-02T16:33:38.821Z,65.59
2023-02-02T16:37:07.152Z,65.96
2023-02-02T16:40:19.602Z,66.30
2023-02-02T16:42:48.053Z,66.62
2023-02-02T16:45:49.221Z,66.68
2023-02-02T16:48:37.521Z,66.76
2023-02-02T16:51:37.892Z,66.97
2023-02-02T16:55:50.486Z,67.13
2023-02-02T16:58:57.646Z,67.32
2023-02-02T17:01:42.467Z,67.56
2023-02-02T17:04:44.297Z,67.65
2023-02-02T17:12:42.581Z,67.54
2023-02-02T17:15:18.842Z,67.53
2023-02-02T17:18:19.570Z,67.73
2023-02-02T17:20:47.974Z,68.00
2023-02-02T17:23:22.936Z,67.88
2023-02-02T17:25:57.138Z,67.86
2023-02-02T17:28:39.570Z,67.86
2023-02-02T17:31:15.274Z,67.96
2023-02-02T17:33:48.587Z,68.01
2023-02-02T17:36:25.668Z,68.15
2023-02-02T17:39:04.553Z,68.28
2023-02-02T17:41:38.929Z,68.38
2023-02-02T17:48:33.560Z,68.76
2023-02-02T17:51:07.989Z,68.89
2023-02-02T17:53:50.723Z,68.70
2023-02-02T17:56:26.881Z,68.62
2023-02-02T17:58:56.078Z,68.79
2023-02-02T18:01:30.877Z,68.75
2023-02-02T18:04:20.228Z,68.79
2023-02-02T18:06:52.874Z,68.74
2023-02-02T18:09:26.496Z,68.92
2023-02-02T18:12:02.168Z,68.88
2023-02-02T18:14:38.087Z,68.93
2023-02-02T18:17:18.680Z,68.94
2023-02-02T18:20:38.267Z,69.02
2023-02-02T18:23:09.223Z,69.04
2023-02-02T18:25:51.672Z,69.13
2023-02-02T18:28:30.632Z,69.06
2023-02-02T18:31:27.799Z,69.07
2023-02-02T18:34:13.637Z,69.13
2023-02-02T18:36:48.339Z,69.14
2023-02-02T18:40:03.266Z,69.23
2023-02-02T18:42:52.149Z,69.34
2023-02-02T18:45:31.259Z,69.21
2023-02-02T18:48:03.920Z,69.08
2023-02-02T18:50:38.456Z,69.14
2023-02-02T18:53:12.151Z,69.11
2023-02-02T18:55:53.442Z,69.05
2023-02-02T18:58:46.544Z,69.03
2023-02-02T19:01:18.670Z,69.06
2023-02-02T19:03:54.739Z,69.14
2023-02-02T19:06:58.503Z,69.10
2023-02-02T19:09:32.206Z,69.02
2023-02-02T19:12:12.052Z,69.05
2023-02-02T19:14:50.362Z,69.03
2023-02-02T19:17:30.267Z,69.08
2023-02-02T19:20:26.713Z,68.96
2023-02-02T19:23:09.983Z,69.05
2023-02-02T19:25:51.146Z,68.98
2023-02-02T19:28:31.240Z,69.01
2023-02-02T19:31:05.223Z,69.09
2023-02-02T19:33:52.470Z,69.07
2023-02-02T19:36:54.287Z,69.00
2023-02-02T19:39:36.419Z,68.95
2023-02-02T19:42:11.734Z,68.91
2023-02-02T19:44:44.464Z,68.93
2023-02-02T19:47:36.767Z,68.83
2023-02-02T19:50:21.347Z,68.75
2023-02-02T19:52:56.242Z,68.64
2023-02-02T19:55:47.030Z,68.57
2023-02-02T19:58:52.749Z,68.72
2023-02-02T20:01:37.247Z,68.57
2023-02-02T20:04:17.738Z,68.41
2023-02-02T20:06:58.911Z,68.44
2023-02-02T20:09:34.836Z,68.38
2023-02-02T20:12:28.173Z,68.35
2023-02-02T20:15:02.105Z,68.32
2023-02-02T20:17:34.451Z,68.24
2023-02-02T20:20:39.135Z,68.16
2023-02-02T20:24:03.237Z,68.15
2023-02-02T20:26:52.922Z,68.22
2023-02-02T20:29:44.924Z,68.28
2023-02-02T20:32:43.070Z,68.40
2023-02-02T20:35:34.008Z,68.44
2023-02-02T20:38:29.620Z,68.43
2023-02-02T20:40:59.380Z,68.37
2023-02-02T20:43:35.071Z,68.30
2023-02-02T20:46:15.726Z,68.22
2023-02-02T20:48:47.436Z,68.27
2023-02-02T20:51:16.560Z,68.65
2023-02-02T20:53:48.233Z,68.81
2023-02-02T20:56:24.727Z,68.26
2023-02-02T20:59:00.973Z,67.92
2023-02-02T21:01:55.400Z,67.79
2023-02-02T21:04:36.144Z,67.69
2023-02-02T21:07:25.959Z,67.64
2023-02-02T21:09:57.502Z,67.56
2023-02-02T21:12:27.013Z,67.53
2023-02-02T21:15:26.318Z,67.36
2023-02-02T21:18:10.572Z,67.25
2023-02-02T21:20:47.307Z,67.19
2023-02-02T21:23:19.831Z,67.14
2023-02-02T21:25:48.942Z,67.08
2023-02-02T21:28:25.846Z,66.94
2023-02-02T21:30:58.425Z,66.92
2023-02-02T21:33:27.561Z,66.74
2023-02-02T21:36:46.688Z,66.66
2023-02-02T21:39:27.682Z,66.52
2023-02-02T21:42:12.748Z,66.39
2023-02-02T21:45:25.790Z,66.38
2023-02-02T21:47:58.631Z,66.39
2023-02-02T21:50:54.366Z,66.16
2023-02-02T21:53:25.740Z,65.98
2023-02-02T21:55:58.208Z,65.90
2023-02-02T21:58:39.385Z,65.77
2023-02-02T22:01:36.543Z,65.66
2023-02-02T22:04:28.576Z,65.59
2023-02-02T22:07:12.542Z,65.30
2023-02-02T22:09:45.437Z,65.15
2023-02-02T22:12:21.468Z,64.95
2023-02-02T22:14:55.728Z,64.80
2023-02-02T22:17:39.370Z,64.69
2023-02-02T22:20:22.249Z,64.54
2023-02-02T22:22:54.212Z,64.51
2023-02-02T22:25:37.260Z,64.50
2023-02-02T22:28:42.845Z,64.44
2023-02-02T22:31:13.003Z,64.51
2023-02-02T22:33:45.434Z,64.54
2023-02-02T22:36:13.961Z,64.46
2023-02-02T22:38:45.740Z,64.65
2023-02-02T22:41:14.080Z,64.88
2023-02-02T22:43:44.605Z,64.84
2023-02-02T22:46:13.492Z,64.90
2023-02-02T22:48:42.383Z,64.83
2023-02-02T22:51:11.517Z,64.67
2023-02-02T22:53:42.820Z,64.58
2023-02-02T22:56:12.173Z,64.43
2023-02-02T22:58:45.064Z,64.66
2023-02-02T23:01:17.550Z,64.76
2023-02-02T23:03:49.311Z,64.58
2023-02-02T23:06:18.225Z,64.62
2023-02-02T23:08:47.137Z,64.70
2023-02-02T23:11:16.623Z,64.72
2023-02-02T23:13:45.408Z,64.95
2023-02-02T23:16:13.909Z,65.05
2023-02-02T23:18:42.378Z,65.09
2023-02-02T23:21:11.187Z,65.20
2023-02-02T23:23:39.938Z,65.22
2023-02-02T23:26:08.819Z,65.31
2023-02-02T23:28:40.691Z,65.37
2023-02-02T23:31:09.450Z,65.48
2023-02-02T23:33:40.608Z,65.44
2023-02-02T23:36:09.320Z,65.36
2023-02-02T23:38:37.893Z,65.47
2023-02-02T23:41:06.678Z,65.44
2023-02-02T23:43:37.037Z,65.46
2023-02-02T23:46:08.952Z,65.55
2023-02-02T23:48:43.532Z,65.55
2023-02-02T23:51:25.023Z,65.55
2023-02-02T23:53:55.499Z,65.50
2023-02-02T23:56:40.689Z,65.49
2023-02-02T23:59:11.639Z,65.60
